Terminal Aerodrome Forecast
Issued by NWS

Home | Current Version | Previous Version | Text Only | Print | Product List | Glossary On
Versions: 1 2 3 4 5 6 7 8 9 10 11 12 13 14 15 16 17
000
FTUS43 KGRR 200500
TAFBTL
TAF
KBTL 200540Z 2006/2106 14006KT P6SM SCT250
     FM201200 16012KT P6SM BKN250
     FM201800 21016G26KT P6SM BKN250=

USA.gov is the U.S. government's official web portal to all federal, state and local government web resources and services.